sensor_id;sensor_type;location;lat;lon;timestamp;P1;durP1;ratioP1;P2;durP2;ratioP2
43823;SDS011;29470;53.550;9.926;2022-12-29T00:02:43;6.53;;;3.72;;
43823;SDS011;29470;53.550;9.926;2022-12-29T00:07:46;5.95;;;3.47;;
43823;SDS011;29470;53.550;9.926;2022-12-29T00:12:49;7.55;;;4.82;;
43823;SDS011;29470;53.550;9.926;2022-12-29T00:18:11;7.07;;;4.70;;
43823;SDS011;29470;53.550;9.926;2022-12-29T00:23:14;6.97;;;3.95;;
43823;SDS011;29470;53.550;9.926;2022-12-29T00:28:34;6.63;;;4.35;;
43823;SDS011;29470;53.550;9.926;2022-12-29T00:33:56;8.88;;;4.45;;
43823;SDS011;29470;53.550;9.926;2022-12-29T00:39:17;7.57;;;4.45;;
43823;SDS011;29470;53.550;9.926;2022-12-29T00:44:39;8.20;;;4.55;;
43823;SDS011;29470;53.550;9.926;2022-12-29T00:49:45;8.13;;;4.60;;
43823;SDS011;29470;53.550;9.926;2022-12-29T00:54:47;9.25;;;4.88;;
43823;SDS011;29470;53.550;9.926;2022-12-29T00:59:50;8.25;;;4.80;;
43823;SDS011;29470;53.550;9.926;2022-12-29T01:04:55;7.30;;;4.53;;
43823;SDS011;29470;53.550;9.926;2022-12-29T01:09:58;8.55;;;4.70;;
43823;SDS011;29470;53.550;9.926;2022-12-29T01:15:13;9.65;;;4.47;;
43823;SDS011;29470;53.550;9.926;2022-12-29T01:20:18;6.30;;;4.47;;
43823;SDS011;29470;53.550;9.926;2022-12-29T01:25:21;8.90;;;5.60;;
43823;SDS011;29470;53.550;9.926;2022-12-29T01:30:24;7.32;;;4.90;;
43823;SDS011;29470;53.550;9.926;2022-12-29T01:35:28;6.20;;;3.95;;
43823;SDS011;29470;53.550;9.926;2022-12-29T01:40:32;4.65;;;3.60;;
43823;SDS011;29470;53.550;9.926;2022-12-29T01:45:34;4.63;;;3.67;;
43823;SDS011;29470;53.550;9.926;2022-12-29T01:50:40;6.90;;;4.20;;
43823;SDS011;29470;53.550;9.926;2022-12-29T01:55:46;8.38;;;4.78;;
43823;SDS011;29470;53.550;9.926;2022-12-29T02:00:52;6.68;;;4.82;;
43823;SDS011;29470;53.550;9.926;2022-12-29T02:05:57;7.13;;;4.93;;
43823;SDS011;29470;53.550;9.926;2022-12-29T02:11:04;9.07;;;5.20;;
43823;SDS011;29470;53.550;9.926;2022-12-29T02:16:12;8.13;;;5.00;;
43823;SDS011;29470;53.550;9.926;2022-12-29T02:27:08;8.15;;;4.55;;
43823;SDS011;29470;53.550;9.926;2022-12-29T02:32:35;5.72;;;3.70;;
43823;SDS011;29470;53.550;9.926;2022-12-29T02:37:49;4.47;;;3.42;;
43823;SDS011;29470;53.550;9.926;2022-12-29T02:43:02;4.03;;;3.40;;
43823;SDS011;29470;53.550;9.926;2022-12-29T02:48:17;5.35;;;3.83;;
43823;SDS011;29470;53.550;9.926;2022-12-29T02:53:23;4.55;;;3.50;;
43823;SDS011;29470;53.550;9.926;2022-12-29T02:58:41;3.67;;;3.15;;
43823;SDS011;29470;53.550;9.926;2022-12-29T03:03:48;3.65;;;3.13;;
43823;SDS011;29470;53.550;9.926;2022-12-29T03:09:06;4.82;;;3.42;;
43823;SDS011;29470;53.550;9.926;2022-12-29T03:14:22;4.78;;;3.20;;
43823;SDS011;29470;53.550;9.926;2022-12-29T03:19:50;5.00;;;3.47;;
43823;SDS011;29470;53.550;9.926;2022-12-29T03:24:57;4.10;;;3.30;;
43823;SDS011;29470;53.550;9.926;2022-12-29T03:30:04;4.57;;;3.03;;
43823;SDS011;29470;53.550;9.926;2022-12-29T03:35:13;4.25;;;3.25;;
43823;SDS011;29470;53.550;9.926;2022-12-29T03:40:18;4.78;;;3.15;;
43823;SDS011;29470;53.550;9.926;2022-12-29T03:45:25;3.60;;;3.03;;
43823;SDS011;29470;53.550;9.926;2022-12-29T03:50:29;3.70;;;2.70;;
43823;SDS011;29470;53.550;9.926;2022-12-29T03:55:32;3.20;;;2.72;;
43823;SDS011;29470;53.550;9.926;2022-12-29T04:00:36;4.40;;;3.40;;
43823;SDS011;29470;53.550;9.926;2022-12-29T04:05:40;3.25;;;2.67;;
43823;SDS011;29470;53.550;9.926;2022-12-29T04:10:43;3.05;;;2.55;;
43823;SDS011;29470;53.550;9.926;2022-12-29T04:15:48;3.25;;;2.30;;
43823;SDS011;29470;53.550;9.926;2022-12-29T04:20:53;3.42;;;2.08;;
43823;SDS011;29470;53.550;9.926;2022-12-29T04:26:06;3.22;;;2.20;;
43823;SDS011;29470;53.550;9.926;2022-12-29T04:31:23;3.83;;;2.20;;
43823;SDS011;29470;53.550;9.926;2022-12-29T04:36:27;3.47;;;2.00;;
43823;SDS011;29470;53.550;9.926;2022-12-29T04:41:33;3.17;;;2.30;;
43823;SDS011;29470;53.550;9.926;2022-12-29T04:46:38;3.28;;;1.98;;
43823;SDS011;29470;53.550;9.926;2022-12-29T04:51:47;2.75;;;1.50;;
43823;SDS011;29470;53.550;9.926;2022-12-29T04:56:51;2.92;;;1.80;;
43823;SDS011;29470;53.550;9.926;2022-12-29T05:01:54;2.30;;;1.40;;
43823;SDS011;29470;53.550;9.926;2022-12-29T05:06:59;2.35;;;1.52;;
43823;SDS011;29470;53.550;9.926;2022-12-29T05:12:02;2.28;;;1.58;;
43823;SDS011;29470;53.550;9.926;2022-12-29T05:17:07;2.58;;;1.73;;
43823;SDS011;29470;53.550;9.926;2022-12-29T05:22:12;3.08;;;2.00;;
43823;SDS011;29470;53.550;9.926;2022-12-29T05:27:17;4.50;;;2.15;;
43823;SDS011;29470;53.550;9.926;2022-12-29T05:32:33;4.63;;;2.60;;
43823;SDS011;29470;53.550;9.926;2022-12-29T05:37:37;2.97;;;2.15;;
43823;SDS011;29470;53.550;9.926;2022-12-29T05:42:41;6.95;;;4.55;;
43823;SDS011;29470;53.550;9.926;2022-12-29T05:47:54;3.22;;;2.40;;
43823;SDS011;29470;53.550;9.926;2022-12-29T05:53:07;2.45;;;1.60;;
43823;SDS011;29470;53.550;9.926;2022-12-29T05:58:13;1.90;;;1.42;;
43823;SDS011;29470;53.550;9.926;2022-12-29T06:03:16;3.30;;;1.75;;
43823;SDS011;29470;53.550;9.926;2022-12-29T06:08:20;2.50;;;1.60;;
43823;SDS011;29470;53.550;9.926;2022-12-29T06:13:23;2.88;;;1.48;;
43823;SDS011;29470;53.550;9.926;2022-12-29T06:18:26;2.72;;;1.90;;
43823;SDS011;29470;53.550;9.926;2022-12-29T06:23:32;3.58;;;1.95;;
43823;SDS011;29470;53.550;9.926;2022-12-29T06:28:35;2.20;;;1.60;;
43823;SDS011;29470;53.550;9.926;2022-12-29T06:33:37;3.15;;;1.60;;
43823;SDS011;29470;53.550;9.926;2022-12-29T06:38:42;4.07;;;1.88;;
43823;SDS011;29470;53.550;9.926;2022-12-29T06:43:46;2.00;;;1.73;;
43823;SDS011;29470;53.550;9.926;2022-12-29T06:49:02;4.78;;;1.80;;
43823;SDS011;29470;53.550;9.926;2022-12-29T06:54:07;2.38;;;1.60;;
43823;SDS011;29470;53.550;9.926;2022-12-29T06:59:10;1.38;;;1.27;;
43823;SDS011;29470;53.550;9.926;2022-12-29T07:04:13;3.67;;;1.73;;
43823;SDS011;29470;53.550;9.926;2022-12-29T07:09:17;2.17;;;1.65;;
43823;SDS011;29470;53.550;9.926;2022-12-29T07:14:20;1.88;;;1.52;;
43823;SDS011;29470;53.550;9.926;2022-12-29T07:19:23;1.92;;;1.63;;
43823;SDS011;29470;53.550;9.926;2022-12-29T07:24:27;2.20;;;1.80;;
43823;SDS011;29470;53.550;9.926;2022-12-29T07:29:31;2.30;;;1.90;;
43823;SDS011;29470;53.550;9.926;2022-12-29T07:34:33;2.40;;;1.90;;
43823;SDS011;29470;53.550;9.926;2022-12-29T07:39:38;3.72;;;1.92;;
43823;SDS011;29470;53.550;9.926;2022-12-29T07:44:41;4.45;;;2.00;;
43823;SDS011;29470;53.550;9.926;2022-12-29T07:49:54;2.25;;;1.83;;
43823;SDS011;29470;53.550;9.926;2022-12-29T07:54:58;4.55;;;2.28;;
43823;SDS011;29470;53.550;9.926;2022-12-29T08:00:01;2.55;;;1.75;;
43823;SDS011;29470;53.550;9.926;2022-12-29T08:05:12;2.75;;;1.85;;
43823;SDS011;29470;53.550;9.926;2022-12-29T08:10:16;2.95;;;1.77;;
43823;SDS011;29470;53.550;9.926;2022-12-29T08:15:19;2.92;;;2.10;;
43823;SDS011;29470;53.550;9.926;2022-12-29T08:20:30;3.88;;;2.00;;
43823;SDS011;29470;53.550;9.926;2022-12-29T08:25:35;3.30;;;2.40;;
43823;SDS011;29470;53.550;9.926;2022-12-29T08:30:38;2.30;;;2.05;;
43823;SDS011;29470;53.550;9.926;2022-12-29T08:35:41;2.40;;;1.80;;
43823;SDS011;29470;53.550;9.926;2022-12-29T08:40:45;4.35;;;2.20;;
43823;SDS011;29470;53.550;9.926;2022-12-29T08:45:48;2.80;;;1.40;;
43823;SDS011;29470;53.550;9.926;2022-12-29T08:50:51;3.50;;;1.70;;
43823;SDS011;29470;53.550;9.926;2022-12-29T08:55:56;2.95;;;1.33;;
43823;SDS011;29470;53.550;9.926;2022-12-29T09:01:13;2.17;;;1.00;;
43823;SDS011;29470;53.550;9.926;2022-12-29T09:06:16;2.40;;;1.05;;
43823;SDS011;29470;53.550;9.926;2022-12-29T09:11:22;2.95;;;0.90;;
43823;SDS011;29470;53.550;9.926;2022-12-29T09:16:26;1.70;;;0.80;;
43823;SDS011;29470;53.550;9.926;2022-12-29T09:21:29;1.50;;;0.90;;
43823;SDS011;29470;53.550;9.926;2022-12-29T09:26:33;2.00;;;0.80;;
43823;SDS011;29470;53.550;9.926;2022-12-29T09:31:36;2.92;;;1.00;;
43823;SDS011;29470;53.550;9.926;2022-12-29T09:36:39;3.85;;;1.05;;
43823;SDS011;29470;53.550;9.926;2022-12-29T09:41:45;5.97;;;1.23;;
43823;SDS011;29470;53.550;9.926;2022-12-29T09:46:54;7.35;;;1.20;;
43823;SDS011;29470;53.550;9.926;2022-12-29T09:52:00;4.72;;;1.08;;
43823;SDS011;29470;53.550;9.926;2022-12-29T09:57:11;3.88;;;1.00;;
43823;SDS011;29470;53.550;9.926;2022-12-29T10:02:32;4.53;;;1.23;;
43823;SDS011;29470;53.550;9.926;2022-12-29T10:07:41;3.90;;;1.10;;
43823;SDS011;29470;53.550;9.926;2022-12-29T10:12:54;3.90;;;1.33;;
43823;SDS011;29470;53.550;9.926;2022-12-29T10:18:04;3.83;;;1.02;;
43823;SDS011;29470;53.550;9.926;2022-12-29T10:23:22;3.28;;;0.90;;
43823;SDS011;29470;53.550;9.926;2022-12-29T10:28:34;2.15;;;0.88;;
43823;SDS011;29470;53.550;9.926;2022-12-29T10:33:41;4.97;;;1.50;;
43823;SDS011;29470;53.550;9.926;2022-12-29T10:38:48;4.28;;;0.90;;
43823;SDS011;29470;53.550;9.926;2022-12-29T10:44:02;9.07;;;1.35;;
43823;SDS011;29470;53.550;9.926;2022-12-29T10:49:05;5.63;;;1.42;;
43823;SDS011;29470;53.550;9.926;2022-12-29T10:54:10;3.40;;;1.10;;
43823;SDS011;29470;53.550;9.926;2022-12-29T10:59:19;7.45;;;1.23;;
43823;SDS011;29470;53.550;9.926;2022-12-29T11:04:31;3.17;;;1.20;;
43823;SDS011;29470;53.550;9.926;2022-12-29T11:09:40;6.25;;;1.17;;
43823;SDS011;29470;53.550;9.926;2022-12-29T11:14:46;3.53;;;0.93;;
43823;SDS011;29470;53.550;9.926;2022-12-29T11:19:49;5.43;;;1.30;;
43823;SDS011;29470;53.550;9.926;2022-12-29T11:24:53;5.07;;;1.23;;
43823;SDS011;29470;53.550;9.926;2022-12-29T11:29:58;3.60;;;0.93;;
43823;SDS011;29470;53.550;9.926;2022-12-29T11:35:01;3.40;;;0.73;;
43823;SDS011;29470;53.550;9.926;2022-12-29T11:40:10;5.05;;;1.00;;
43823;SDS011;29470;53.550;9.926;2022-12-29T11:45:21;5.10;;;1.38;;
43823;SDS011;29470;53.550;9.926;2022-12-29T11:50:28;5.53;;;1.30;;
43823;SDS011;29470;53.550;9.926;2022-12-29T11:55:33;2.50;;;0.88;;
43823;SDS011;29470;53.550;9.926;2022-12-29T12:00:37;3.42;;;1.00;;
43823;SDS011;29470;53.550;9.926;2022-12-29T12:05:41;3.85;;;0.77;;
43823;SDS011;29470;53.550;9.926;2022-12-29T12:10:52;4.75;;;0.80;;
43823;SDS011;29470;53.550;9.926;2022-12-29T12:16:04;2.78;;;1.10;;
43823;SDS011;29470;53.550;9.926;2022-12-29T12:21:13;3.38;;;1.17;;
43823;SDS011;29470;53.550;9.926;2022-12-29T12:26:27;4.25;;;1.70;;
43823;SDS011;29470;53.550;9.926;2022-12-29T12:31:38;3.63;;;1.20;;
43823;SDS011;29470;53.550;9.926;2022-12-29T12:37:02;4.60;;;1.38;;
43823;SDS011;29470;53.550;9.926;2022-12-29T12:42:30;3.88;;;1.05;;
43823;SDS011;29470;53.550;9.926;2022-12-29T12:47:51;2.75;;;0.93;;
43823;SDS011;29470;53.550;9.926;2022-12-29T12:53:08;6.90;;;1.38;;
43823;SDS011;29470;53.550;9.926;2022-12-29T12:58:25;6.65;;;1.05;;
43823;SDS011;29470;53.550;9.926;2022-12-29T13:03:38;4.60;;;1.30;;
43823;SDS011;29470;53.550;9.926;2022-12-29T13:09:02;4.68;;;1.40;;
43823;SDS011;29470;53.550;9.926;2022-12-29T13:14:27;6.75;;;1.10;;
43823;SDS011;29470;53.550;9.926;2022-12-29T13:19:44;6.43;;;1.73;;
43823;SDS011;29470;53.550;9.926;2022-12-29T13:24:58;7.28;;;1.20;;
43823;SDS011;29470;53.550;9.926;2022-12-29T13:30:18;3.80;;;1.40;;
43823;SDS011;29470;53.550;9.926;2022-12-29T13:35:30;3.95;;;1.20;;
43823;SDS011;29470;53.550;9.926;2022-12-29T13:40:45;5.13;;;1.45;;
43823;SDS011;29470;53.550;9.926;2022-12-29T13:45:55;3.45;;;1.13;;
43823;SDS011;29470;53.550;9.926;2022-12-29T13:51:03;5.22;;;1.33;;
43823;SDS011;29470;53.550;9.926;2022-12-29T13:56:12;3.00;;;1.02;;
43823;SDS011;29470;53.550;9.926;2022-12-29T14:01:22;3.67;;;0.90;;
43823;SDS011;29470;53.550;9.926;2022-12-29T14:06:31;4.43;;;1.10;;
43823;SDS011;29470;53.550;9.926;2022-12-29T14:11:38;2.55;;;0.70;;
43823;SDS011;29470;53.550;9.926;2022-12-29T14:16:43;4.18;;;0.88;;
43823;SDS011;29470;53.550;9.926;2022-12-29T14:21:51;3.58;;;1.00;;
43823;SDS011;29470;53.550;9.926;2022-12-29T14:26:56;3.15;;;0.85;;
43823;SDS011;29470;53.550;9.926;2022-12-29T14:31:59;2.83;;;0.85;;
43823;SDS011;29470;53.550;9.926;2022-12-29T14:37:04;2.15;;;0.88;;
43823;SDS011;29470;53.550;9.926;2022-12-29T14:42:10;5.47;;;0.90;;
43823;SDS011;29470;53.550;9.926;2022-12-29T14:47:18;4.93;;;1.48;;
43823;SDS011;29470;53.550;9.926;2022-12-29T14:52:26;4.28;;;1.00;;
43823;SDS011;29470;53.550;9.926;2022-12-29T14:57:33;5.88;;;1.60;;
43823;SDS011;29470;53.550;9.926;2022-12-29T15:02:39;4.03;;;0.93;;
43823;SDS011;29470;53.550;9.926;2022-12-29T15:07:46;5.65;;;1.15;;
43823;SDS011;29470;53.550;9.926;2022-12-29T15:12:51;8.35;;;1.63;;
43823;SDS011;29470;53.550;9.926;2022-12-29T15:17:57;6.55;;;1.98;;
43823;SDS011;29470;53.550;9.926;2022-12-29T15:23:17;8.65;;;1.85;;
43823;SDS011;29470;53.550;9.926;2022-12-29T15:28:20;5.15;;;1.67;;
43823;SDS011;29470;53.550;9.926;2022-12-29T15:33:24;5.50;;;1.73;;
43823;SDS011;29470;53.550;9.926;2022-12-29T15:38:30;6.13;;;2.10;;
43823;SDS011;29470;53.550;9.926;2022-12-29T15:43:47;6.55;;;2.60;;
43823;SDS011;29470;53.550;9.926;2022-12-29T15:48:55;7.95;;;2.88;;
43823;SDS011;29470;53.550;9.926;2022-12-29T15:53:59;7.72;;;2.00;;
43823;SDS011;29470;53.550;9.926;2022-12-29T15:59:02;7.93;;;2.33;;
43823;SDS011;29470;53.550;9.926;2022-12-29T16:04:06;10.57;;;2.10;;
43823;SDS011;29470;53.550;9.926;2022-12-29T16:09:15;6.60;;;2.10;;
43823;SDS011;29470;53.550;9.926;2022-12-29T16:19:24;8.07;;;2.28;;
43823;SDS011;29470;53.550;9.926;2022-12-29T16:24:32;9.27;;;2.55;;
43823;SDS011;29470;53.550;9.926;2022-12-29T16:29:35;6.90;;;2.10;;
43823;SDS011;29470;53.550;9.926;2022-12-29T16:34:41;8.95;;;2.60;;
43823;SDS011;29470;53.550;9.926;2022-12-29T16:39:47;6.20;;;2.30;;
43823;SDS011;29470;53.550;9.926;2022-12-29T16:44:51;9.02;;;2.50;;
43823;SDS011;29470;53.550;9.926;2022-12-29T16:50:16;7.20;;;2.92;;
43823;SDS011;29470;53.550;9.926;2022-12-29T16:55:30;7.95;;;2.63;;
43823;SDS011;29470;53.550;9.926;2022-12-29T17:00:34;7.38;;;1.95;;
43823;SDS011;29470;53.550;9.926;2022-12-29T17:05:38;12.13;;;2.67;;
43823;SDS011;29470;53.550;9.926;2022-12-29T17:10:43;10.07;;;2.70;;
43823;SDS011;29470;53.550;9.926;2022-12-29T17:16:06;10.55;;;2.78;;
43823;SDS011;29470;53.550;9.926;2022-12-29T17:21:12;12.00;;;4.70;;
43823;SDS011;29470;53.550;9.926;2022-12-29T17:26:16;8.05;;;2.83;;
43823;SDS011;29470;53.550;9.926;2022-12-29T17:31:19;9.55;;;3.47;;
43823;SDS011;29470;53.550;9.926;2022-12-29T17:36:22;11.13;;;3.88;;
43823;SDS011;29470;53.550;9.926;2022-12-29T17:41:26;15.60;;;3.05;;
43823;SDS011;29470;53.550;9.926;2022-12-29T17:46:29;9.75;;;2.50;;
43823;SDS011;29470;53.550;9.926;2022-12-29T17:51:32;11.45;;;3.92;;
43823;SDS011;29470;53.550;9.926;2022-12-29T17:56:36;10.68;;;4.80;;
43823;SDS011;29470;53.550;9.926;2022-12-29T18:01:39;10.13;;;3.08;;
43823;SDS011;29470;53.550;9.926;2022-12-29T18:06:46;10.05;;;2.60;;
43823;SDS011;29470;53.550;9.926;2022-12-29T18:11:50;10.30;;;3.15;;
43823;SDS011;29470;53.550;9.926;2022-12-29T18:16:53;9.27;;;3.40;;
43823;SDS011;29470;53.550;9.926;2022-12-29T18:21:56;6.93;;;2.58;;
43823;SDS011;29470;53.550;9.926;2022-12-29T18:27:00;10.38;;;3.85;;
43823;SDS011;29470;53.550;9.926;2022-12-29T18:32:05;11.50;;;3.35;;
43823;SDS011;29470;53.550;9.926;2022-12-29T18:37:08;9.63;;;3.40;;
43823;SDS011;29470;53.550;9.926;2022-12-29T18:42:24;10.98;;;4.35;;
43823;SDS011;29470;53.550;9.926;2022-12-29T18:47:27;9.80;;;3.33;;
43823;SDS011;29470;53.550;9.926;2022-12-29T18:52:31;7.13;;;3.55;;
43823;SDS011;29470;53.550;9.926;2022-12-29T18:57:35;10.70;;;3.47;;
43823;SDS011;29470;53.550;9.926;2022-12-29T19:02:39;9.43;;;3.95;;
43823;SDS011;29470;53.550;9.926;2022-12-29T19:07:42;10.27;;;4.25;;
43823;SDS011;29470;53.550;9.926;2022-12-29T19:12:46;17.65;;;5.95;;
43823;SDS011;29470;53.550;9.926;2022-12-29T19:17:51;15.32;;;6.80;;
43823;SDS011;29470;53.550;9.926;2022-12-29T19:23:16;12.45;;;4.13;;
43823;SDS011;29470;53.550;9.926;2022-12-29T19:28:23;21.55;;;6.70;;
43823;SDS011;29470;53.550;9.926;2022-12-29T19:33:27;26.85;;;11.00;;
43823;SDS011;29470;53.550;9.926;2022-12-29T19:38:31;17.92;;;6.30;;
43823;SDS011;29470;53.550;9.926;2022-12-29T19:43:35;13.52;;;4.90;;
43823;SDS011;29470;53.550;9.926;2022-12-29T19:48:40;14.90;;;4.63;;
43823;SDS011;29470;53.550;9.926;2022-12-29T19:53:44;13.25;;;5.03;;
43823;SDS011;29470;53.550;9.926;2022-12-29T19:58:49;13.10;;;3.95;;
43823;SDS011;29470;53.550;9.926;2022-12-29T20:03:52;11.88;;;3.00;;
43823;SDS011;29470;53.550;9.926;2022-12-29T20:08:57;9.65;;;2.80;;
43823;SDS011;29470;53.550;9.926;2022-12-29T20:14:04;6.00;;;2.33;;
43823;SDS011;29470;53.550;9.926;2022-12-29T20:19:09;5.85;;;2.38;;
43823;SDS011;29470;53.550;9.926;2022-12-29T20:24:12;6.00;;;2.22;;
43823;SDS011;29470;53.550;9.926;2022-12-29T20:29:21;4.90;;;1.40;;
43823;SDS011;29470;53.550;9.926;2022-12-29T20:34:24;6.47;;;1.52;;
43823;SDS011;29470;53.550;9.926;2022-12-29T20:39:27;2.78;;;1.52;;
43823;SDS011;29470;53.550;9.926;2022-12-29T20:44:33;2.85;;;0.93;;
43823;SDS011;29470;53.550;9.926;2022-12-29T20:49:37;2.63;;;0.80;;
43823;SDS011;29470;53.550;9.926;2022-12-29T20:54:40;3.35;;;1.05;;
43823;SDS011;29470;53.550;9.926;2022-12-29T20:59:44;4.25;;;2.20;;
43823;SDS011;29470;53.550;9.926;2022-12-29T21:04:47;5.75;;;1.45;;
43823;SDS011;29470;53.550;9.926;2022-12-29T21:10:13;2.00;;;1.10;;
43823;SDS011;29470;53.550;9.926;2022-12-29T21:16:24;6.22;;;1.92;;
43823;SDS011;29470;53.550;9.926;2022-12-29T21:22:23;5.03;;;1.55;;
43823;SDS011;29470;53.550;9.926;2022-12-29T21:39:33;5.63;;;1.90;;
43823;SDS011;29470;53.550;9.926;2022-12-29T21:44:36;5.90;;;1.30;;
43823;SDS011;29470;53.550;9.926;2022-12-29T21:49:57;8.52;;;2.10;;
43823;SDS011;29470;53.550;9.926;2022-12-29T21:55:01;8.10;;;3.17;;
43823;SDS011;29470;53.550;9.926;2022-12-29T22:00:06;7.75;;;2.08;;
43823;SDS011;29470;53.550;9.926;2022-12-29T22:05:28;4.32;;;1.40;;
43823;SDS011;29470;53.550;9.926;2022-12-29T22:10:49;6.72;;;2.33;;
43823;SDS011;29470;53.550;9.926;2022-12-29T22:16:10;5.65;;;1.88;;
43823;SDS011;29470;53.550;9.926;2022-12-29T22:21:13;5.22;;;1.80;;
43823;SDS011;29470;53.550;9.926;2022-12-29T22:26:17;4.78;;;1.30;;
43823;SDS011;29470;53.550;9.926;2022-12-29T22:31:22;3.60;;;1.80;;
43823;SDS011;29470;53.550;9.926;2022-12-29T22:36:29;3.85;;;1.40;;
43823;SDS011;29470;53.550;9.926;2022-12-29T22:41:34;4.30;;;1.83;;
43823;SDS011;29470;53.550;9.926;2022-12-29T22:46:37;7.47;;;1.85;;
43823;SDS011;29470;53.550;9.926;2022-12-29T22:51:40;6.75;;;2.13;;
43823;SDS011;29470;53.550;9.926;2022-12-29T22:56:44;12.32;;;2.40;;
43823;SDS011;29470;53.550;9.926;2022-12-29T23:01:47;9.48;;;2.30;;
43823;SDS011;29470;53.550;9.926;2022-12-29T23:06:50;7.45;;;2.50;;
43823;SDS011;29470;53.550;9.926;2022-12-29T23:11:54;6.13;;;2.20;;
43823;SDS011;29470;53.550;9.926;2022-12-29T23:16:57;5.72;;;1.90;;
43823;SDS011;29470;53.550;9.926;2022-12-29T23:22:00;4.45;;;1.80;;
43823;SDS011;29470;53.550;9.926;2022-12-29T23:27:04;8.18;;;2.78;;
43823;SDS011;29470;53.550;9.926;2022-12-29T23:32:07;5.95;;;2.00;;
43823;SDS011;29470;53.550;9.926;2022-12-29T23:37:10;10.18;;;2.58;;
43823;SDS011;29470;53.550;9.926;2022-12-29T23:42:14;9.60;;;2.50;;
43823;SDS011;29470;53.550;9.926;2022-12-29T23:47:17;12.30;;;2.88;;
43823;SDS011;29470;53.550;9.926;2022-12-29T23:52:20;6.78;;;2.35;;
43823;SDS011;29470;53.550;9.926;2022-12-29T23:57:24;11.95;;;3.00;;
